Strona główna
METAR-TAF:

METAR-TAF

Lotnisko :

Port lotniczy Strasburg

Strasburg, Francja

Szerokość geograficzna: 48-33N, Długość geograficzna: 007-38E, wysokość: 153 m

Aktualna obserwacja pogody

Raport powstał 19 minut temu, godzina 09:00 UTC
Wiatr 6 kt od południowy zachód, zmienny między południe i zachód
Temperatura 26°C
Wilgotność 58%
Ciśnienie 1021 hPa
Widzialność 10 km lub więcej
Mało chmury na wysokości 3400 ft

METAR: LFST 210900Z AUTO 22006KT 180V270 9999 FEW034 26/17 Q1021 NOSIG

czas: 11:19 (09:19 UTC)

Prognoza

Raport powstał 4 godziny i 19 minut temu, godzina 05:00 UTC
Prognoza ważna od 21 godzina 06 UTC do 22 godzina 06 UTC
Wiatr 6 kt od południe
Widzialność 10 km lub więcej
Przerywane chmury na wysokości 5500 ft
Stopniowe zmiany
od 21 godzina 09 UTC do 21 godzina 12 UTC

TAF: LFST 210500Z 2106/2206 17006KT 9999 BKN055 BECMG 2109/2112 NSC

Obserwacja i prognoza pogody dla ponad 4000 lotnisk (raport METAR i TAF).

Dostępne stacje oznaczono żółtymi i czerwonymi punktami na mapie.

Najedź kursorem aby zobaczyć nazwę stacji.

Kliknij aby zobaczyć obserwacje i prognozy pogody.

Aby zmienić mapę: kliknij na zielony przycisk z czarnym krzyżykiem, aby powiększyć; na zielony przycisk z myślnikiem, aby pomniejszyć; na zielone strzałki, aby przejść do map sąsiednich.


METAR-TAF: